Terminal Aerodrome Forecast
Issued by NWS Quad Cities IA IL

Home | Current Version | Previous Version | Text Only | Print | Product List | Glossary On
Versions: 1 2 3 4 5 6 7 8 9 10 11 12 13 14 15 16 17 18 19 20 21 22
000
FTUS43 KDVN 180300 AAB
TAFDBQ
TAF AMD
KDBQ 180304Z 1803/1824 28014KT P6SM OVC008
      TEMPO 1803/1805 FEW009
     FM180500 28013KT P6SM SKC
     FM181500 27011G18KT P6SM SCT025=

USA.gov is the U.S. government's official web portal to all federal, state and local government web resources and services.